Time;durP1;ratioP1;P1;durP2;ratioP2;P2;SDS_P1;SDS_P2;PMS_P1;PMS_P2;Temp;Humidity;BMP_temperature;BMP_pressure;BME280_temperature;BME280_humidity;BME280_pressure;Samples;Min_cycle;Max_cycle;Signal;HPM_P1;HPM_P2
2022/11/20 00:00:51;;;;;;;40.42;20.50;;;6.20;99.90;;;;;;4998930;28;20649;-84
2022/11/20 00:03:17;;;;;;;49.25;21.48;;;6.00;99.90;;;;;;4999654;28;20176;-83
2022/11/20 00:05:43;;;;;;;52.45;20.73;;;5.80;99.90;;;;;;4998184;28;20589;-79
2022/11/20 00:08:08;;;;;;;41.00;21.13;;;5.50;99.90;;;;;;4998367;28;20197;-85
2022/11/20 00:10:37;;;;;;;46.60;23.08;;;5.70;99.90;;;;;;5000748;28;20193;-80
2022/11/20 00:13:03;;;;;;;46.25;21.77;;;5.60;99.90;;;;;;4982980;28;20180;-85
2022/11/20 00:15:29;;;;;;;53.50;22.80;;;5.60;99.90;;;;;;4995710;28;20177;-84
2022/11/20 00:17:54;;;;;;;46.40;22.00;;;5.70;99.90;;;;;;5021317;23;20603;-78
2022/11/20 00:20:20;;;;;;;48.15;21.30;;;5.70;99.90;;;;;;5016480;28;20184;-80
2022/11/20 00:22:45;;;;;;;53.90;23.63;;;5.60;99.90;;;;;;5017604;28;20506;-94
2022/11/20 00:25:11;;;;;;;48.10;23.10;;;5.70;99.90;;;;;;5019097;28;20173;-96
2022/11/20 00:27:37;;;;;;;51.25;24.67;;;5.90;99.90;;;;;;5016583;28;20175;-86
2022/11/20 00:30:04;;;;;;;47.70;22.17;;;6.00;99.90;;;;;;5015854;28;20294;-89
2022/11/20 00:32:30;;;;;;;55.83;24.77;;;6.10;99.90;;;;;;5016224;28;20164;-81
2022/11/20 00:34:55;;;;;;;46.55;22.95;;;6.10;99.90;;;;;;5017250;28;20172;-95
2022/11/20 00:37:21;;;;;;;51.47;25.88;;;6.00;99.90;;;;;;5017737;28;20165;-95
2022/11/20 00:39:46;;;;;;;47.63;23.83;;;5.80;99.90;;;;;;5017150;28;20283;-95
2022/11/20 00:42:12;;;;;;;42.90;24.15;;;5.80;99.90;;;;;;5017330;28;20177;-95
2022/11/20 00:44:38;;;;;;;50.63;25.10;;;5.90;99.90;;;;;;5017701;28;20223;-95
2022/11/20 00:47:04;;;;;;;59.83;24.88;;;5.70;99.90;;;;;;5017228;28;20176;-90
2022/11/20 00:49:29;;;;;;;42.58;23.95;;;5.70;99.90;;;;;;5017048;28;20570;-88
2022/11/20 00:51:55;;;;;;;45.25;24.08;;;5.80;99.90;;;;;;5016704;28;20641;-94
2022/11/20 00:54:20;;;;;;;47.17;24.45;;;5.90;99.90;;;;;;5020523;28;20602;-95
2022/11/20 00:56:46;;;;;;;53.22;26.52;;;5.80;99.90;;;;;;5016972;28;20160;-95
2022/11/20 00:59:12;;;;;;;52.42;25.80;;;6.00;99.90;;;;;;5016195;28;20520;-95
2022/11/20 01:01:38;;;;;;;46.05;23.73;;;5.90;99.90;;;;;;5016461;28;20177;-95
2022/11/20 01:04:03;;;;;;;53.65;23.65;;;6.00;99.90;;;;;;5016989;28;20169;-83
2022/11/20 01:06:31;;;;;;;50.00;25.40;;;5.70;99.90;;;;;;5018836;28;20172;-84
2022/11/20 01:08:59;;;;;;;52.25;24.83;;;5.60;99.90;;;;;;5015015;28;20212;-87
2022/11/20 01:11:31;;;;;;;56.92;23.63;;;5.70;99.90;;;;;;5015930;28;20207;-90
2022/11/20 01:13:58;;;;;;;43.88;23.65;;;5.80;99.90;;;;;;5016037;28;20164;-89
2022/11/20 01:16:30;;;;;;;42.13;22.85;;;5.90;99.90;;;;;;5018193;28;20180;-90
2022/11/20 01:18:58;;;;;;;46.63;22.58;;;6.10;99.90;;;;;;5015424;28;20188;-77
2022/11/20 01:21:29;;;;;;;52.58;25.60;;;6.20;99.90;;;;;;5014568;28;20244;-77
2022/11/20 01:23:55;;;;;;;47.35;22.80;;;6.20;99.90;;;;;;5014352;28;20168;-78
2022/11/20 01:26:22;;;;;;;40.38;22.92;;;6.20;99.90;;;;;;5014071;28;20520;-77
2022/11/20 01:28:48;;;;;;;47.15;24.92;;;6.40;99.90;;;;;;5014176;28;20218;-83
2022/11/20 01:31:16;;;;;;;46.80;23.38;;;6.40;99.90;;;;;;5013907;28;20637;-76
2022/11/20 01:33:43;;;;;;;45.17;23.30;;;6.60;99.90;;;;;;5013868;28;20199;-77
2022/11/20 01:36:09;;;;;;;47.05;24.38;;;6.50;99.90;;;;;;5013519;28;20207;-80
2022/11/20 01:38:34;;;;;;;53.63;24.92;;;6.40;99.90;;;;;;5013902;28;20653;-77
2022/11/20 01:41:00;;;;;;;50.58;22.38;;;6.40;99.90;;;;;;5012756;28;20172;-78
2022/11/20 01:43:26;;;;;;;42.72;23.48;;;6.30;99.90;;;;;;5013880;28;20188;-77
2022/11/20 01:46:04;;;;;;;44.67;22.25;;;6.30;99.90;;;;;;5014422;28;20161;-79
2022/11/20 01:48:33;;;;;;;42.75;21.88;;;6.70;99.90;;;;;;5013608;28;20343;-89
2022/11/20 01:51:00;;;;;;;47.00;22.75;;;6.60;99.90;;;;;;5013899;28;20196;-80
2022/11/20 01:53:31;;;;;;;45.38;23.25;;;6.40;99.90;;;;;;5012522;28;20629;-76
2022/11/20 01:56:01;;;;;;;43.45;23.30;;;6.60;99.90;;;;;;5013976;28;20586;-84
2022/11/20 01:58:35;;;;;;;37.78;22.13;;;6.50;99.90;;;;;;5014047;28;20260;-77
2022/11/20 02:01:01;;;;;;;37.58;22.50;;;6.30;99.90;;;;;;5013754;28;20164;-86
2022/11/20 02:03:27;;;;;;;53.10;24.98;;;6.20;99.90;;;;;;5013323;28;20164;-77
2022/11/20 02:05:56;;;;;;;47.60;23.15;;;6.00;99.90;;;;;;5016584;28;20165;-85
2022/11/20 02:08:22;;;;;;;39.50;22.20;;;6.00;99.90;;;;;;5015797;28;20200;-85
2022/11/20 02:10:48;;;;;;;61.22;24.08;;;5.90;99.90;;;;;;5018137;28;20169;-78
2022/11/20 02:15:59;;;;;;;43.33;22.48;;;6.00;99.90;;;;;;5019591;28;20210;-77
2022/11/20 02:18:25;;;;;;;51.45;23.27;;;6.00;99.90;;;;;;5018183;28;20203;-77
2022/11/20 02:20:57;;;;;;;51.10;24.75;;;6.20;99.90;;;;;;5018870;28;20546;-77
2022/11/20 02:23:50;;;;;;;55.85;25.98;;;6.20;99.90;;;;;;5015637;28;20164;-77
2022/11/20 02:26:17;;;;;;;52.63;22.98;;;6.10;99.90;;;;;;5017435;28;20645;-81
2022/11/20 02:28:43;;;;;;;48.13;24.65;;;6.00;99.90;;;;;;5015232;28;20262;-86
2022/11/20 02:31:08;;;;;;;45.97;22.75;;;6.30;99.90;;;;;;5016502;28;20180;-78
2022/11/20 02:33:37;;;;;;;47.63;23.40;;;6.30;99.90;;;;;;5016516;28;20168;-78
2022/11/20 02:36:03;;;;;;;43.92;22.45;;;6.30;99.90;;;;;;5017296;28;20263;-78
2022/11/20 02:38:28;;;;;;;46.20;24.33;;;6.30;99.90;;;;;;5014664;28;20283;-82
2022/11/20 02:40:54;;;;;;;47.15;20.95;;;6.10;99.90;;;;;;5014814;28;20173;-82
2022/11/20 02:43:19;;;;;;;43.22;22.58;;;6.20;99.90;;;;;;5015664;28;20169;-77
2022/11/20 02:45:45;;;;;;;43.90;22.67;;;6.10;99.90;;;;;;5014363;28;20200;-80
2022/11/20 02:48:11;;;;;;;44.72;22.38;;;6.20;99.90;;;;;;5012957;28;20307;-78
2022/11/20 02:50:38;;;;;;;44.22;21.98;;;6.10;99.90;;;;;;5013512;28;20188;-78
2022/11/20 02:53:04;;;;;;;40.90;21.15;;;6.00;99.90;;;;;;5016858;28;20164;-80
2022/11/20 02:55:31;;;;;;;36.90;20.88;;;6.00;99.90;;;;;;5016688;28;20178;-85
2022/11/20 02:57:57;;;;;;;41.33;22.23;;;5.90;99.90;;;;;;5015487;28;20172;-77
2022/11/20 03:00:22;;;;;;;51.25;22.67;;;6.00;99.90;;;;;;5014953;28;20188;-76
2022/11/20 03:02:48;;;;;;;46.15;22.75;;;6.10;99.90;;;;;;5015358;28;20200;-76
2022/11/20 03:05:14;;;;;;;38.53;20.58;;;6.10;99.90;;;;;;5014211;28;20180;-76
2022/11/20 03:07:39;;;;;;;41.70;21.45;;;6.00;99.90;;;;;;5014385;28;20160;-77
2022/11/20 03:10:07;;;;;;;42.08;20.88;;;6.00;99.90;;;;;;5014398;28;20216;-82
2022/11/20 03:12:33;;;;;;;37.05;21.65;;;6.00;99.90;;;;;;5012959;28;20165;-77
2022/11/20 03:14:58;;;;;;;40.08;19.95;;;6.10;99.90;;;;;;5016335;28;20191;-77
2022/11/20 03:17:24;;;;;;;39.63;20.23;;;6.30;99.90;;;;;;5017780;28;20184;-78
2022/11/20 03:19:49;;;;;;;44.42;21.33;;;6.20;99.90;;;;;;5018084;28;20187;-77
2022/11/20 03:22:15;;;;;;;44.25;22.30;;;6.10;99.90;;;;;;5017721;28;20543;-78
2022/11/20 03:24:41;;;;;;;45.42;21.63;;;6.20;99.90;;;;;;5017683;28;20179;-95
2022/11/20 03:27:06;;;;;;;41.70;21.38;;;6.20;99.90;;;;;;5017396;28;20172;-76
2022/11/20 03:29:32;;;;;;;40.78;20.67;;;6.20;99.90;;;;;;5017470;28;20212;-78
2022/11/20 03:31:58;;;;;;;42.67;20.60;;;6.10;99.90;;;;;;5017703;28;20177;-77
2022/11/20 03:34:23;;;;;;;41.35;21.23;;;6.30;99.90;;;;;;5017334;28;20698;-76
2022/11/20 03:36:49;;;;;;;39.10;20.67;;;6.30;99.90;;;;;;5016736;28;20168;-75
2022/11/20 03:39:14;;;;;;;46.63;22.98;;;6.30;99.90;;;;;;5016215;28;20216;-77
2022/11/20 03:41:42;;;;;;;37.08;19.67;;;6.40;99.90;;;;;;5016110;28;20169;-76
2022/11/20 03:44:09;;;;;;;46.63;23.17;;;6.50;99.90;;;;;;5014732;28;20176;-76
2022/11/20 03:46:35;;;;;;;37.70;20.52;;;6.40;99.90;;;;;;5016261;28;20169;-84
2022/11/20 03:49:00;;;;;;;41.25;19.92;;;6.50;99.90;;;;;;5017265;28;20220;-88
2022/11/20 03:51:32;;;;;;;39.17;20.05;;;6.60;99.90;;;;;;5016226;28;20168;-84
2022/11/20 03:54:00;;;;;;;37.80;19.83;;;6.40;99.90;;;;;;5016365;28;20169;-79
2022/11/20 03:56:28;;;;;;;39.03;19.52;;;6.10;99.90;;;;;;5014897;28;20629;-85
2022/11/20 03:58:54;;;;;;;44.97;20.55;;;5.90;99.90;;;;;;5015946;28;20200;-76
2022/11/20 04:01:22;;;;;;;37.45;19.63;;;5.90;99.90;;;;;;5015855;28;20644;-76
2022/11/20 04:03:49;;;;;;;41.03;19.33;;;6.00;99.90;;;;;;5015767;28;20173;-78
2022/11/20 04:06:17;;;;;;;45.30;19.90;;;6.20;99.90;;;;;;5016231;28;20165;-76
2022/11/20 04:08:43;;;;;;;44.08;19.48;;;6.50;99.90;;;;;;5014586;28;20673;-76
2022/11/20 04:11:17;;;;;;;32.53;18.98;;;6.60;99.90;;;;;;5015445;28;20252;-76
2022/11/20 04:13:47;;;;;;;40.60;19.67;;;6.70;99.90;;;;;;5015508;28;20161;-76
2022/11/20 04:16:13;;;;;;;36.10;19.30;;;6.70;99.90;;;;;;5015318;28;20176;-76
2022/11/20 04:18:38;;;;;;;35.00;18.02;;;6.80;99.90;;;;;;5013896;28;20208;-76
2022/11/20 04:21:05;;;;;;;40.75;20.42;;;6.80;99.90;;;;;;5015070;28;20165;-77
2022/11/20 04:23:31;;;;;;;46.75;21.25;;;6.90;99.90;;;;;;5015266;28;20168;-77
2022/11/20 04:26:13;;;;;;;44.08;20.60;;;7.00;99.90;;;;;;5014343;28;20179;-76
2022/11/20 04:28:39;;;;;;;36.58;19.48;;;7.10;99.90;;;;;;5015135;28;20570;-77
2022/11/20 04:31:11;;;;;;;38.50;19.67;;;7.10;99.90;;;;;;5015070;28;20192;-76
2022/11/20 04:33:37;;;;;;;42.17;21.60;;;7.00;99.90;;;;;;5015203;28;20165;-81
2022/11/20 04:36:14;;;;;;;43.03;21.27;;;7.30;99.90;;;;;;5015085;28;20256;-80
2022/11/20 04:38:40;;;;;;;38.42;21.17;;;7.10;99.90;;;;;;5013737;28;20202;-77
2022/11/20 04:41:08;;;;;;;51.13;23.60;;;7.20;99.90;;;;;;5014820;28;20180;-77
2022/11/20 04:43:34;;;;;;;45.78;21.23;;;7.20;99.90;;;;;;5014958;28;20165;-76
2022/11/20 04:46:01;;;;;;;59.28;23.20;;;6.90;99.90;;;;;;5014904;28;20183;-76
2022/11/20 04:48:28;;;;;;;44.15;21.65;;;7.00;99.90;;;;;;5014617;28;20668;-77
2022/11/20 04:50:54;;;;;;;57.65;22.17;;;7.10;99.90;;;;;;5014820;28;20179;-80
2022/11/20 04:53:21;;;;;;;60.55;22.33;;;6.70;99.90;;;;;;5015024;28;20176;-77
2022/11/20 04:55:47;;;;;;;51.88;23.10;;;6.40;99.90;;;;;;5015157;28;20174;-77
2022/11/20 04:58:13;;;;;;;52.83;23.38;;;6.50;99.90;;;;;;5014771;28;20222;-79
2022/11/20 05:00:39;;;;;;;53.33;23.45;;;6.60;99.90;;;;;;5013295;28;20177;-77
2022/11/20 05:03:05;;;;;;;47.13;22.00;;;6.60;99.90;;;;;;5014984;28;20560;-78
2022/11/20 05:05:30;;;;;;;48.15;23.10;;;6.80;99.90;;;;;;5014829;28;20168;-80
2022/11/20 05:07:57;;;;;;;50.75;22.33;;;7.00;99.90;;;;;;5014918;28;20626;-77
2022/11/20 05:10:23;;;;;;;55.20;22.65;;;7.20;99.90;;;;;;5014691;28;20218;-80
2022/11/20 05:12:49;;;;;;;52.15;21.92;;;7.20;99.90;;;;;;5014693;28;20964;-77
2022/11/20 05:15:15;;;;;;;45.53;21.58;;;7.20;99.90;;;;;;5014899;28;20161;-83
2022/11/20 05:17:40;;;;;;;47.65;21.60;;;7.30;99.90;;;;;;5014549;28;20700;-79
2022/11/20 05:20:06;;;;;;;55.33;21.15;;;7.40;99.90;;;;;;5014199;28;20546;-77
2022/11/20 05:22:32;;;;;;;50.05;22.33;;;7.30;99.90;;;;;;5013174;28;20187;-77
2022/11/20 05:24:58;;;;;;;53.47;22.73;;;7.20;99.90;;;;;;5014353;28;20255;-78
2022/11/20 05:27:23;;;;;;;54.95;23.92;;;7.10;99.90;;;;;;5014214;28;20253;-76
2022/11/20 05:29:49;;;;;;;50.95;21.65;;;7.30;99.90;;;;;;5013420;28;20204;-76
2022/11/20 05:32:14;;;;;;;49.90;21.98;;;7.40;99.90;;;;;;5013688;28;20649;-77
2022/11/20 05:34:40;;;;;;;48.42;22.63;;;7.60;99.90;;;;;;5014124;28;20532;-77
2022/11/20 05:37:05;;;;;;;54.50;22.25;;;7.60;99.90;;;;;;5014107;28;20652;-77
2022/11/20 05:39:31;;;;;;;47.90;21.95;;;7.50;99.90;;;;;;5013878;28;20275;-80
2022/11/20 05:44:41;;;;;;;49.30;22.65;;;7.40;99.90;;;;;;5013960;28;20180;-77
2022/11/20 05:47:06;;;;;;;51.45;23.27;;;7.30;99.90;;;;;;5013975;28;20168;-76
2022/11/20 05:49:32;;;;;;;51.13;22.13;;;7.40;99.90;;;;;;5013701;28;20212;-78
2022/11/20 05:51:58;;;;;;;58.80;24.27;;;7.20;99.90;;;;;;5013773;28;20168;-79
2022/11/20 05:54:23;;;;;;;59.63;24.85;;;7.30;99.90;;;;;;5013254;28;20180;-76
2022/11/20 05:56:49;;;;;;;62.30;25.10;;;7.10;99.90;;;;;;5013168;28;20878;-76
2022/11/20 05:59:15;;;;;;;64.20;24.88;;;6.70;99.90;;;;;;5014427;28;20619;-76
2022/11/20 06:01:40;;;;;;;60.72;22.98;;;6.70;99.90;;;;;;5015578;28;20168;-77
2022/11/20 06:04:06;;;;;;;49.53;22.35;;;6.80;99.90;;;;;;5015239;28;20581;-77
2022/11/20 06:06:31;;;;;;;59.70;22.92;;;6.60;99.90;;;;;;5015121;28;20172;-77
2022/11/20 06:08:58;;;;;;;60.28;25.48;;;6.60;99.90;;;;;;5014992;28;20262;-76
2022/11/20 06:11:24;;;;;;;58.85;23.65;;;6.70;99.90;;;;;;5013997;28;20252;-76
2022/11/20 06:13:50;;;;;;;66.13;25.45;;;6.70;99.90;;;;;;5014096;28;20200;-95
2022/11/20 06:16:18;;;;;;;60.95;24.52;;;6.90;99.90;;;;;;5012691;28;20176;-80
2022/11/20 06:18:44;;;;;;;63.75;23.60;;;6.80;99.90;;;;;;5013497;28;20207;-76
2022/11/20 06:21:14;;;;;;;62.80;24.17;;;6.80;99.90;;;;;;5013040;28;20173;-77
2022/11/20 06:23:40;;;;;;;63.00;24.15;;;7.10;99.90;;;;;;5013364;28;20172;-77
2022/11/20 06:26:11;;;;;;;67.47;24.33;;;7.10;99.90;;;;;;5013321;28;20191;-77
2022/11/20 06:28:38;;;;;;;70.20;26.20;;;7.00;99.90;;;;;;5012766;28;20211;-77
2022/11/20 06:31:04;;;;;;;66.10;25.63;;;7.20;99.90;;;;;;5013083;28;20169;-78
2022/11/20 06:33:30;;;;;;;63.88;25.35;;;6.80;99.90;;;;;;5012875;28;20226;-77
2022/11/20 06:36:00;;;;;;;59.42;24.08;;;6.80;99.90;;;;;;5013172;28;20164;-77
2022/11/20 06:38:26;;;;;;;69.13;25.40;;;6.90;99.90;;;;;;5013028;28;20188;-83
2022/11/20 06:40:52;;;;;;;72.75;25.98;;;7.00;99.90;;;;;;5013293;28;20167;-78
2022/11/20 06:43:17;;;;;;;63.85;24.70;;;7.20;99.90;;;;;;5013082;28;20598;-76
2022/11/20 06:45:43;;;;;;;64.78;25.05;;;7.20;99.90;;;;;;5012877;28;20192;-76
2022/11/20 06:48:09;;;;;;;62.55;24.73;;;7.50;99.90;;;;;;5012617;28;20219;-80
2022/11/20 06:50:36;;;;;;;63.40;25.38;;;7.50;99.90;;;;;;5012350;28;20188;-76
2022/11/20 06:53:04;;;;;;;57.58;24.25;;;7.50;99.90;;;;;;5012815;28;20161;-78
2022/11/20 06:55:30;;;;;;;55.97;23.67;;;7.60;99.90;;;;;;5013095;28;20203;-76
2022/11/20 06:57:56;;;;;;;59.97;25.38;;;7.50;99.90;;;;;;5012892;28;20168;-76
2022/11/20 07:00:21;;;;;;;59.97;23.35;;;7.50;99.90;;;;;;5011811;28;20192;-82
2022/11/20 07:02:47;;;;;;;61.33;24.83;;;7.70;99.90;;;;;;5012998;28;20195;-77
2022/11/20 07:05:13;;;;;;;55.65;22.60;;;7.80;99.90;;;;;;5011824;28;20192;-77
2022/11/20 07:07:38;;;;;;;66.75;24.85;;;7.80;99.90;;;;;;5012799;28;20660;-76
2022/11/20 07:10:04;;;;;;;53.90;22.48;;;7.80;99.90;;;;;;5012859;28;20295;-77
2022/11/20 07:12:30;;;;;;;57.88;22.55;;;7.80;99.90;;;;;;5010340;28;20183;-93
2022/11/20 07:14:56;;;;;;;51.85;22.27;;;7.70;99.90;;;;;;4994754;28;20173;-80
2022/11/20 07:17:21;;;;;;;60.40;23.27;;;7.70;99.90;;;;;;4994222;28;20181;-80
2022/11/20 07:19:47;;;;;;;51.33;24.15;;;7.60;99.90;;;;;;4993794;28;20189;-80
2022/11/20 07:22:13;;;;;;;61.78;24.05;;;7.70;99.90;;;;;;4993130;28;20213;-79
2022/11/20 07:24:38;;;;;;;47.72;22.30;;;7.50;99.90;;;;;;4992209;28;20169;-78
2022/11/20 07:27:04;;;;;;;54.80;22.73;;;7.40;99.90;;;;;;4994763;28;20197;-78
2022/11/20 07:29:30;;;;;;;57.63;23.70;;;7.40;99.90;;;;;;4992807;28;20236;-78
2022/11/20 07:31:56;;;;;;;51.53;22.10;;;7.60;99.90;;;;;;4993611;28;20180;-77
2022/11/20 07:34:22;;;;;;;54.15;22.02;;;7.30;99.90;;;;;;4994508;28;20185;-80
2022/11/20 07:36:47;;;;;;;47.05;22.02;;;7.40;99.90;;;;;;4993308;28;20216;-79
2022/11/20 07:39:13;;;;;;;58.47;21.95;;;7.70;99.90;;;;;;4993146;28;20202;-80
2022/11/20 07:41:38;;;;;;;49.97;19.63;;;7.80;99.90;;;;;;4993381;28;20173;-80
2022/11/20 07:44:04;;;;;;;40.75;20.67;;;7.80;99.90;;;;;;4992903;28;20260;-77
2022/11/20 07:46:30;;;;;;;43.40;20.83;;;7.90;99.90;;;;;;4993239;28;20169;-78
2022/11/20 07:48:56;;;;;;;48.55;21.55;;;7.80;99.90;;;;;;4993318;28;20683;-89
2022/11/20 07:51:21;;;;;;;50.97;19.75;;;7.70;99.90;;;;;;4994218;28;20162;-78
2022/11/20 07:53:50;;;;;;;51.83;21.90;;;7.80;99.90;;;;;;4994754;28;20178;-78
2022/11/20 07:56:15;;;;;;;48.65;22.13;;;8.00;99.90;;;;;;4997429;28;20158;-81
2022/11/20 07:58:42;;;;;;;49.88;20.13;;;8.10;99.90;;;;;;4999506;28;20287;-93
2022/11/20 08:01:07;;;;;;;48.72;21.02;;;8.10;99.90;;;;;;4996578;28;20193;-84
2022/11/20 08:03:38;;;;;;;48.05;21.48;;;8.10;99.90;;;;;;5000075;28;20269;-88
2022/11/20 08:06:04;;;;;;;55.80;20.60;;;8.00;99.90;;;;;;5002860;28;20169;-94
2022/11/20 08:08:30;;;;;;;52.78;21.42;;;8.00;99.90;;;;;;5001647;28;20203;-77
2022/11/20 08:16:32;;;;;;;54.95;21.00;;;7.90;99.90;;;;;;4997773;28;20191;-78
2022/11/20 08:18:58;;;;;;;48.25;19.90;;;8.10;99.90;;;;;;4996961;28;20204;-77
2022/11/20 08:21:23;;;;;;;43.42;19.80;;;8.30;99.90;;;;;;4997280;28;20177;-77
2022/11/20 08:23:49;;;;;;;45.78;19.90;;;8.50;99.90;;;;;;4996893;28;20222;-87
2022/11/20 08:26:15;;;;;;;42.42;19.15;;;8.40;99.90;;;;;;5000691;28;20533;-79
2022/11/20 08:28:43;;;;;;;46.95;20.55;;;8.50;99.90;;;;;;5008013;28;20209;-84
2022/11/20 08:31:09;;;;;;;45.63;18.67;;;8.50;99.90;;;;;;4996878;28;20248;-88
2022/11/20 08:33:38;;;;;;;47.88;20.10;;;8.50;99.90;;;;;;4995199;28;20200;-81
2022/11/20 08:36:07;;;;;;;53.03;19.85;;;8.70;99.90;;;;;;4996693;28;20541;-81
2022/11/20 08:38:33;;;;;;;56.67;19.30;;;8.80;99.90;;;;;;4995925;28;20173;-86
2022/11/20 08:44:03;;;;;;;54.72;20.13;;;8.50;99.90;;;;;;5012696;28;20335;-90
2022/11/20 08:46:46;;;;;;;46.97;19.17;;;8.50;99.90;;;;;;5022806;28;20188;-82
2022/11/20 08:49:13;;;;;;;61.97;22.80;;;8.50;99.90;;;;;;5029935;28;20219;-78
2022/11/20 08:51:39;;;;;;;59.60;19.20;;;8.50;99.90;;;;;;5015862;28;20165;-78
2022/11/20 08:54:05;;;;;;;60.00;21.33;;;8.60;99.90;;;;;;5017343;28;20585;-77
2022/11/20 08:56:32;;;;;;;51.80;20.52;;;8.60;99.90;;;;;;5018384;28;20258;-77
2022/11/20 08:58:59;;;;;;;45.40;20.38;;;8.60;99.90;;;;;;5019196;28;20185;-78
2022/11/20 09:01:25;;;;;;;42.33;18.73;;;8.40;99.90;;;;;;5019866;28;20164;-77
2022/11/20 09:03:51;;;;;;;43.08;18.85;;;8.40;99.90;;;;;;5018659;28;20231;-77
2022/11/20 09:06:16;;;;;;;47.45;19.02;;;8.50;99.90;;;;;;5017693;28;20169;-78
2022/11/20 09:08:42;;;;;;;47.33;21.17;;;8.70;99.90;;;;;;5018904;28;20215;-78
2022/11/20 09:11:08;;;;;;;46.90;17.23;;;8.90;99.90;;;;;;5018076;28;20234;-77
2022/11/20 09:13:35;;;;;;;45.63;19.00;;;8.90;99.90;;;;;;5019944;28;20188;-78
2022/11/20 09:16:21;;;;;;;42.33;18.65;;;9.10;99.90;;;;;;5017203;28;20176;-87
2022/11/20 09:18:46;;;;;;;40.75;17.92;;;9.20;99.90;;;;;;5017689;28;20204;-78
2022/11/20 09:21:13;;;;;;;41.45;17.48;;;9.10;99.90;;;;;;5016165;28;20173;-87
2022/11/20 09:23:39;;;;;;;42.00;18.45;;;9.10;99.90;;;;;;5015731;28;20168;-84
2022/11/20 09:26:10;;;;;;;38.88;18.55;;;9.20;99.90;;;;;;5022496;28;20172;-78
2022/11/20 09:28:36;;;;;;;41.30;18.60;;;9.20;99.90;;;;;;5017590;28;20200;-77
2022/11/20 09:31:08;;;;;;;43.45;17.30;;;9.00;99.90;;;;;;5016333;28;20655;-77
2022/11/20 09:33:35;;;;;;;36.22;17.30;;;9.00;99.90;;;;;;5020032;28;20165;-77
2022/11/20 09:36:00;;;;;;;36.22;17.38;;;9.30;99.90;;;;;;5018195;28;20175;-78
2022/11/20 09:38:26;;;;;;;40.20;18.10;;;9.40;99.90;;;;;;5018277;28;20239;-77
2022/11/20 09:41:04;;;;;;;46.03;18.15;;;9.60;99.90;;;;;;5016224;28;20172;-77
2022/11/20 09:43:55;;;;;;;42.20;18.63;;;9.40;99.90;;;;;;5015259;28;20632;-77
2022/11/20 09:46:29;;;;;;;41.08;16.90;;;9.50;99.90;;;;;;5015353;28;20644;-77
2022/11/20 09:49:13;;;;;;;30.65;15.45;;;9.60;99.90;;;;;;5018025;28;20212;-77
2022/11/20 09:51:59;;;;;;;36.67;15.68;;;9.70;99.90;;;;;;5019778;28;20214;-77
2022/11/20 09:54:45;;;;;;;31.25;16.10;;;9.70;99.90;;;;;;5018625;28;20176;-78
2022/11/20 09:57:13;;;;;;;30.40;14.95;;;9.80;99.90;;;;;;5019903;28;20250;-77
2022/11/20 09:59:45;;;;;;;28.67;14.73;;;10.00;99.90;;;;;;5017711;28;20228;-78
2022/11/20 10:02:30;;;;;;;31.70;15.80;;;10.20;99.90;;;;;;5017623;28;20171;-77
2022/11/20 10:05:19;;;;;;;33.40;13.93;;;10.30;99.90;;;;;;5015878;28;20176;-79
2022/11/20 10:08:09;;;;;;;31.15;13.68;;;10.20;99.90;;;;;;5015216;28;20254;-78
2022/11/20 10:10:48;;;;;;;27.25;13.43;;;10.20;99.90;;;;;;5015711;28;20208;-78
2022/11/20 10:13:26;;;;;;;27.70;13.95;;;10.20;99.90;;;;;;5014705;28;20164;-78
2022/11/20 10:16:14;;;;;;;25.13;13.30;;;10.20;99.90;;;;;;5015104;28;20169;-78
2022/11/20 10:18:57;;;;;;;31.05;16.50;;;10.50;99.90;;;;;;5017467;28;20667;-81
2022/11/20 10:21:35;;;;;;;29.58;14.60;;;10.60;99.90;;;;;;5015651;28;20564;-78
2022/11/20 10:24:23;;;;;;;36.05;15.02;;;10.40;99.90;;;;;;5017676;28;20172;-79
2022/11/20 10:27:11;;;;;;;23.33;13.23;;;10.40;99.90;;;;;;5020037;28;20173;-78
2022/11/20 10:29:41;;;;;;;15.25;10.52;;;10.40;99.90;;;;;;5016075;28;20216;-80
2022/11/20 10:32:35;;;;;;;21.65;11.35;;;10.60;99.90;;;;;;5014303;28;20523;-77
2022/11/20 10:35:08;;;;;;;17.13;10.65;;;10.60;99.90;;;;;;5015049;28;20179;-78
2022/11/20 10:37:40;;;;;;;18.25;9.57;;;10.80;99.90;;;;;;5014365;28;20183;-78
2022/11/20 10:40:20;;;;;;;12.90;7.55;;;11.20;99.90;;;;;;5014170;28;20202;-77
2022/11/20 10:43:27;;;;;;;28.17;8.55;;;11.40;99.90;;;;;;5014411;28;20176;-77
2022/11/20 10:46:06;;;;;;;12.68;8.50;;;11.20;99.90;;;;;;5014774;28;20160;-79
2022/11/20 10:48:32;;;;;;;11.30;6.65;;;11.20;99.90;;;;;;5014822;28;20223;-77
2022/11/20 10:51:23;;;;;;;16.42;6.88;;;10.90;99.90;;;;;;5015066;28;20655;-78
2022/11/20 10:54:45;;;;;;;9.25;5.63;;;11.00;99.90;;;;;;5015942;28;20216;-77
2022/11/20 10:57:46;;;;;;;12.25;5.90;;;11.00;99.90;;;;;;5013746;28;20187;-78
2022/11/20 11:00:13;;;;;;;7.45;4.90;;;11.00;99.90;;;;;;5018965;28;20184;-84
2022/11/20 11:02:51;;;;;;;10.40;5.07;;;10.90;99.90;;;;;;5021859;28;20180;-88
2022/11/20 11:05:34;;;;;;;11.55;5.70;;;10.90;99.90;;;;;;5020024;28;20161;-77
2022/11/20 11:08:00;;;;;;;7.80;5.22;;;10.70;99.90;;;;;;5015057;28;20172;-95
2022/11/20 11:10:51;;;;;;;7.97;5.00;;;10.80;99.90;;;;;;5015192;28;20618;-88
2022/11/20 11:13:21;;;;;;;12.07;5.97;;;10.90;99.90;;;;;;5015180;28;20196;-89
2022/11/20 11:15:47;;;;;;;12.43;4.65;;;11.10;99.90;;;;;;5014523;28;20164;-81
2022/11/20 11:18:27;;;;;;;14.57;4.97;;;10.90;99.90;;;;;;5013254;28;20188;-85
2022/11/20 11:20:54;;;;;;;6.38;4.10;;;10.70;99.90;;;;;;5013191;28;20664;-82
2022/11/20 11:23:36;;;;;;;9.18;4.35;;;10.60;99.90;;;;;;5013254;28;20164;-78
2022/11/20 11:26:03;;;;;;;8.85;4.63;;;10.50;99.90;;;;;;5013071;28;20172;-78
2022/11/20 11:28:29;;;;;;;18.23;4.72;;;10.50;99.90;;;;;;5012920;28;20164;-79
2022/11/20 11:30:55;;;;;;;9.13;4.68;;;10.60;99.90;;;;;;5011193;28;20176;-78
2022/11/20 11:33:27;;;;;;;6.93;4.00;;;10.70;99.90;;;;;;5013424;28;20169;-81
2022/11/20 11:35:58;;;;;;;6.32;3.35;;;10.70;99.90;;;;;;5015826;28;20172;-78
2022/11/20 11:38:40;;;;;;;6.68;4.45;;;10.70;99.90;;;;;;5017284;28;20589;-78
2022/11/20 11:41:11;;;;;;;4.93;3.67;;;10.90;99.90;;;;;;5018330;28;20172;-77
2022/11/20 11:46:27;;;;;;;41.78;18.15;;;10.70;99.90;;;;;;5022136;28;20227;-77
2022/11/20 11:48:56;;;;;;;47.45;19.92;;;10.80;99.90;;;;;;5021196;28;20224;-78
2022/11/20 11:51:21;;;;;;;47.17;26.17;;;10.90;99.90;;;;;;5020884;28;20548;-76
2022/11/20 11:53:47;;;;;;;23.05;14.70;;;10.70;99.90;;;;;;5019457;28;20160;-76
2022/11/20 11:56:14;;;;;;;33.90;18.05;;;10.70;99.90;;;;;;5020470;28;20172;-77
2022/11/20 11:58:49;;;;;;;42.05;18.83;;;10.70;99.90;;;;;;5020479;28;20192;-77
2022/11/20 12:01:47;;;;;;;24.75;14.18;;;10.60;99.90;;;;;;5018804;28;20164;-77
2022/11/20 12:04:16;;;;;;;26.52;14.05;;;10.70;99.90;;;;;;5019226;28;20169;-77
2022/11/20 12:06:45;;;;;;;43.58;22.50;;;10.50;99.90;;;;;;5019819;28;20165;-76
2022/11/20 12:09:12;;;;;;;30.25;15.02;;;10.50;99.90;;;;;;5018259;28;20208;-78
2022/11/20 12:11:45;;;;;;;13.95;7.32;;;10.40;99.90;;;;;;5018263;28;20156;-77
2022/11/20 12:14:23;;;;;;;17.15;6.60;;;10.40;99.90;;;;;;5017503;28;20191;-77
2022/11/20 12:16:50;;;;;;;19.10;7.00;;;10.20;99.90;;;;;;5017642;28;20172;-77
2022/11/20 12:19:15;;;;;;;13.27;7.68;;;10.30;99.90;;;;;;5018121;28;20612;-77
2022/11/20 12:21:43;;;;;;;29.55;14.35;;;10.20;99.90;;;;;;5017386;28;20176;-77
2022/11/20 12:24:30;;;;;;;12.18;7.95;;;10.20;99.90;;;;;;5016819;28;20227;-77
2022/11/20 12:27:01;;;;;;;15.80;7.40;;;10.10;99.90;;;;;;5016959;28;20161;-77
2022/11/20 12:29:42;;;;;;;17.30;8.48;;;10.10;99.90;;;;;;5016523;28;20772;-77
2022/11/20 12:32:31;;;;;;;18.50;8.85;;;10.00;99.90;;;;;;5018083;28;20161;-78
2022/11/20 12:35:21;;;;;;;11.82;7.15;;;10.10;99.90;;;;;;5016170;28;20179;-78
2022/11/20 12:38:25;;;;;;;12.98;4.75;;;10.10;99.90;;;;;;5015865;28;20176;-78
2022/11/20 12:41:02;;;;;;;9.80;3.70;;;9.90;99.90;;;;;;5015601;28;20267;-77
2022/11/20 12:46:45;;;;;;;6.05;4.32;;;9.80;99.90;;;;;;5014325;28;20180;-77
2022/11/20 12:49:33;;;;;;;3.45;2.85;;;9.90;99.90;;;;;;5014761;28;20200;-85
2022/11/20 12:52:11;;;;;;;5.47;3.58;;;9.80;99.90;;;;;;5014389;28;20215;-78
2022/11/20 12:54:53;;;;;;;6.22;3.75;;;9.90;99.90;;;;;;5015481;28;20165;-80
2022/11/20 12:57:29;;;;;;;8.40;3.20;;;9.90;99.90;;;;;;5015041;28;20248;-78
2022/11/20 13:00:01;;;;;;;10.65;3.70;;;10.00;99.90;;;;;;5014807;28;20266;-78
2022/11/20 13:02:42;;;;;;;5.43;3.00;;;10.00;99.90;;;;;;5014843;28;20183;-78
2022/11/20 13:05:19;;;;;;;8.32;3.67;;;10.00;99.90;;;;;;5014726;28;20171;-78
2022/11/20 13:07:46;;;;;;;11.80;3.80;;;10.10;99.90;;;;;;5014841;28;20259;-78